Airfield :
LOGIN :

Register | Disclaimer

   EN    FR    IT 

 










Legend :    VFR   Marginal VFR   IFR   Intensive IFR   Very Intensive IFR
Visi :
Ceiling :
>= 8 km
>= 3000ft
5 to 8 km
1000 to 3000 ft
1500m to 5 km
500 to 1000 ft
800 to 1500m
200 to 500 ft
< 800m
< 200 ft
Symbols :   Thunderstorms  Fog  Heavy snow  Heavy precipitations  Wind > 20 kt
SIGMETs :     Misc.  Thunderstorms  Icing  Turbulence  Mountain Waves  Volcanic Ashes






- Airport Elevation : 393 ft
- IATA code : TYF


ESST - Torsby

CURRENT METAR :
  • 060850Z AUTO 21010KT 180V240 9999 FEW024/// BKN036/// BKN043/// 13/09 Q0986

EXPIRED METARs :
  • 060820Z AUTO 21013KT 180V250 9999 SCT026/// BKN034/// OVC059/// 14/09 Q0986
  • 060750Z AUTO 21012KT 160V260 9999 FEW023/// BKN032/// BKN059/// 13/09 Q0986
  • 060720Z AUTO 21011KT 170V250 9999 FEW023/// BKN053/// BKN098/// 12/09 Q0986
  • 060650Z AUTO 21009KT 180V250 9999 BKN053/// 12/09 Q0985
  • 060620Z AUTO 20011KT 160V230 9999 OVC055/// 12/09 Q0985

TAF N/A



MET'MAP, your aeronautical weather chart ! - Copyright ORBIFLY December 2007 - Disclaimer

ORBIFLY MET'MAP TEAM :

Programming & Development : Alexandra Zaïnal
Concept & original design : Baudouin d'Aumeries
Assistance for programming : Marc-Olivier Méhu
Technical & hardware support : Manuel Goepfert

Contact : metmap@orbifly.com




SOURCES & CREDITS :

   NOAA